Time;durP1;ratioP1;P1;durP2;ratioP2;P2;SDS_P1;SDS_P2;PMS_P1;PMS_P2;Temp;Humidity;BMP_temperature;BMP_pressure;BME280_temperature;BME280_humidity;BME280_pressure;Samples;Min_cycle;Max_cycle;Signal;HPM_P1;HPM_P2
2023/03/06 00:00:00;;;;;;;0.40;0.40;;;;;;;3.76;91.32;96271.16;5005083;28;20053;-61
2023/03/06 00:02:27;;;;;;;0.50;0.50;;;;;;;3.87;91.22;96275.78;5005272;28;20092;-62
2023/03/06 00:04:53;;;;;;;0.38;0.38;;;;;;;3.56;91.18;96252.91;5004991;28;20093;-63
2023/03/06 00:07:20;;;;;;;0.40;0.40;;;;;;;3.26;91.27;96221.50;5017543;28;20046;-60
2023/03/06 00:09:47;;;;;;;0.38;0.38;;;;;;;3.46;91.34;96270.63;5024667;28;20049;-61
2023/03/06 00:12:13;;;;;;;0.40;0.40;;;;;;;3.63;90.71;96277.78;5023753;28;20049;-60
2023/03/06 00:14:40;;;;;;;0.40;0.40;;;;;;;3.47;90.87;96283.16;5024664;28;20107;-61
2023/03/06 00:17:07;;;;;;;0.40;0.40;;;;;;;3.27;90.92;96242.22;5025295;28;20091;-61
2023/03/06 00:19:33;;;;;;;0.40;0.40;;;;;;;3.56;90.64;96272.88;5024473;28;20077;-61
2023/03/06 00:22:02;;;;;;;0.40;0.40;;;;;;;3.53;90.99;96273.56;5025206;28;20076;-60
2023/03/06 00:24:28;;;;;;;0.30;0.30;;;;;;;3.47;89.80;96261.25;5024841;28;20057;-62
2023/03/06 00:26:55;;;;;;;0.40;0.40;;;;;;;3.64;88.98;96285.66;5039815;28;20068;-62
2023/03/06 00:29:21;;;;;;;0.32;0.32;;;;;;;3.57;88.51;96288.19;5024381;28;20077;-60
2023/03/06 00:31:48;;;;;;;0.40;0.40;;;;;;;3.26;89.84;96259.81;5039624;28;20420;-60
2023/03/06 00:34:15;;;;;;;0.40;0.40;;;;;;;3.34;91.21;96287.03;5024614;28;20169;-62
2023/03/06 00:36:41;;;;;;;0.40;0.40;;;;;;;3.31;91.32;96260.34;5024564;28;20148;-61
2023/03/06 00:39:08;;;;;;;0.40;0.40;;;;;;;3.39;90.14;96286.81;5024116;28;20087;-61
2023/03/06 00:41:35;;;;;;;0.40;0.40;;;;;;;3.05;90.00;96225.13;5024510;28;20050;-63
2023/03/06 00:44:01;;;;;;;0.40;0.40;;;;;;;3.19;90.95;96274.06;5023005;28;20057;-61
2023/03/06 00:46:28;;;;;;;0.40;0.40;;;;;;;3.11;91.88;96272.22;5022807;28;20045;-61
2023/03/06 00:48:54;;;;;;;0.40;0.40;;;;;;;3.13;92.45;96269.16;5024115;28;20099;-62
2023/03/06 00:51:21;;;;;;;0.40;0.40;;;;;;;2.48;92.68;96174.41;5023929;28;20147;-60
2023/03/06 00:53:48;;;;;;;0.40;0.40;;;;;;;3.13;92.39;96275.38;5039272;28;20200;-60
2023/03/06 00:56:15;;;;;;;0.40;0.40;;;;;;;3.13;92.19;96272.66;5024085;28;20050;-61
2023/03/06 00:58:44;;;;;;;0.40;0.40;;;;;;;3.12;92.06;96282.00;5022731;28;20053;-63
2023/03/06 01:01:11;;;;;;;0.40;0.40;;;;;;;2.95;92.78;96249.41;5023880;28;20088;-63
2023/03/06 01:03:38;;;;;;;0.40;0.40;;;;;;;3.13;92.08;96275.38;5021468;28;20045;-60
2023/03/06 01:06:04;;;;;;;0.40;0.40;;;;;;;3.18;91.66;96263.44;5021606;28;20482;-61
2023/03/06 01:08:31;;;;;;;0.40;0.40;;;;;;;3.12;91.63;96262.88;5003379;28;20642;-60
2023/03/06 01:10:58;;;;;;;0.40;0.40;;;;;;;3.46;91.08;96286.25;5003177;28;20073;-62
2023/03/06 01:13:24;;;;;;;0.40;0.40;;;;;;;3.59;89.21;96294.09;5001855;28;20061;-60
2023/03/06 01:15:51;;;;;;;0.40;0.40;;;;;;;3.16;87.14;96222.75;5001748;28;20569;-60
2023/03/06 01:18:18;;;;;;;0.32;0.32;;;;;;;3.70;87.43;96287.00;5019197;28;20060;-60
2023/03/06 01:20:44;;;;;;;0.40;0.40;;;;;;;3.62;87.30;96301.59;5003886;28;20890;-60
2023/03/06 01:23:11;;;;;;;0.40;0.40;;;;;;;3.68;87.28;96289.31;5004653;28;20050;-62
2023/03/06 01:25:38;;;;;;;0.40;0.40;;;;;;;3.74;87.38;96298.06;5002595;28;20163;-62
2023/03/06 01:28:04;;;;;;;0.40;0.40;;;;;;;3.73;87.75;96291.00;5004497;28;20085;-61
2023/03/06 01:30:31;;;;;;;0.40;0.40;;;;;;;3.54;86.85;96242.31;5004066;28;20056;-61
2023/03/06 01:32:58;;;;;;;0.40;0.40;;;;;;;3.71;87.65;96277.66;5003792;28;20077;-61
2023/03/06 01:35:24;;;;;;;0.40;0.40;;;;;;;3.85;88.23;96294.53;5015284;28;20051;-62
2023/03/06 01:37:51;;;;;;;0.40;0.40;;;;;;;3.80;88.52;96302.97;4984463;28;20042;-61
2023/03/06 01:40:18;;;;;;;0.40;0.40;;;;;;;3.87;89.00;96292.22;4984891;28;20485;-61
2023/03/06 01:42:48;;;;;;;0.40;0.40;;;;;;;3.84;89.08;96292.13;4984601;28;20492;-62
2023/03/06 01:45:14;;;;;;;0.38;0.38;;;;;;;3.82;88.69;96294.41;4984458;28;20061;-61
2023/03/06 01:47:41;;;;;;;0.40;0.40;;;;;;;3.82;87.88;96289.72;4984226;28;20062;-62
2023/03/06 01:50:10;;;;;;;0.40;0.40;;;;;;;3.49;87.53;96248.03;4984667;28;20058;-62
2023/03/06 01:52:49;;;;;;;0.40;0.40;;;;;;;2.69;88.20;96183.28;4984559;28;20086;-60
2023/03/06 01:55:23;;;;;;;0.40;0.40;;;;;;;3.34;88.26;96256.13;4983050;28;20058;-61
2023/03/06 01:57:56;;;;;;;0.40;0.40;;;;;;;3.23;87.84;96239.38;4984263;28;20077;-63
2023/03/06 02:00:25;;;;;;;0.50;0.50;;;;;;;3.36;88.15;96271.06;5001582;28;20054;-62
2023/03/06 02:02:55;;;;;;;0.38;0.38;;;;;;;3.24;87.83;96257.38;4987777;28;20058;-60
2023/03/06 02:05:22;;;;;;;0.40;0.40;;;;;;;3.02;88.31;96249.63;4987854;28;21707;-62
2023/03/06 02:07:50;;;;;;;0.35;0.35;;;;;;;0.37;87.63;95817.91;5017649;28;20058;-61
2023/03/06 02:10:18;;;;;;;0.30;0.30;;;;;;;3.33;88.24;96299.13;5042325;28;20049;-60
2023/03/06 02:12:48;;;;;;;0.40;0.40;;;;;;;3.01;88.73;96262.53;5026076;28;20057;-60
2023/03/06 02:15:17;;;;;;;0.40;0.40;;;;;;;3.25;89.26;96301.97;5027212;28;20053;-62
2023/03/06 02:17:45;;;;;;;0.40;0.40;;;;;;;2.80;89.64;96247.34;5027307;28;20053;-60
2023/03/06 02:20:33;;;;;;;0.40;0.40;;;;;;;3.05;90.00;96331.81;5027183;28;20061;-64
2023/03/06 02:23:02;;;;;;;0.40;0.40;;;;;;;2.98;90.77;96308.91;5026665;28;20068;-60
2023/03/06 02:25:35;;;;;;;0.40;0.40;;;;;;;3.02;90.14;96304.34;5041905;28;20053;-62
2023/03/06 02:28:03;;;;;;;0.40;0.40;;;;;;;2.98;90.22;96315.19;5026675;28;20076;-62
2023/03/06 02:30:30;;;;;;;0.40;0.40;;;;;;;2.64;90.42;96293.66;5026777;28;20052;-60
2023/03/06 02:32:57;;;;;;;0.40;0.40;;;;;;;2.84;91.40;96319.34;5026488;28;20077;-62
2023/03/06 02:35:26;;;;;;;0.30;0.30;;;;;;;2.72;91.62;96322.03;5026806;28;20057;-63
2023/03/06 02:37:56;;;;;;;0.40;0.40;;;;;;;2.58;92.22;96316.91;5027024;28;20079;-62
2023/03/06 02:40:22;;;;;;;0.40;0.40;;;;;;;2.16;92.93;96287.25;5025224;28;20061;-61
2023/03/06 02:42:55;;;;;;;0.32;0.32;;;;;;;2.33;93.61;96331.59;5026838;28;20083;-60
2023/03/06 02:45:33;;;;;;;0.30;0.30;;;;;;;2.04;95.12;96309.03;5026526;28;20049;-60
2023/03/06 02:47:59;;;;;;;0.40;0.40;;;;;;;1.89;96.75;96331.47;5026317;28;20111;-63
2023/03/06 02:50:26;;;;;;;0.30;0.30;;;;;;;2.02;98.36;96330.41;5041570;28;20107;-62
2023/03/06 02:52:53;;;;;;;0.30;0.30;;;;;;;2.06;97.83;96325.88;5025311;28;20057;-60
2023/03/06 02:55:19;;;;;;;0.32;0.32;;;;;;;1.74;98.96;96324.66;5026392;28;20140;-61
2023/03/06 02:57:46;;;;;;;0.30;0.30;;;;;;;1.42;98.58;96268.84;5025938;28;20180;-62
2023/03/06 03:00:14;;;;;;;0.30;0.30;;;;;;;1.70;97.83;96322.94;5026306;28;20057;-62
2023/03/06 03:02:41;;;;;;;0.30;0.30;;;;;;;1.50;99.00;96308.91;5026059;28;20060;-60
2023/03/06 03:05:07;;;;;;;0.30;0.30;;;;;;;1.53;98.39;96296.56;5025926;28;20076;-60
2023/03/06 03:07:34;;;;;;;0.30;0.30;;;;;;;1.84;98.52;96346.13;5013379;28;20057;-61
2023/03/06 03:10:02;;;;;;;0.30;0.30;;;;;;;1.76;98.44;96311.50;5006172;28;20061;-62
2023/03/06 03:12:28;;;;;;;0.30;0.30;;;;;;;1.79;98.35;96337.34;4986843;28;20066;-61
2023/03/06 03:14:55;;;;;;;0.30;0.30;;;;;;;1.93;96.56;96344.13;4985509;28;20108;-61
2023/03/06 03:17:23;;;;;;;0.30;0.30;;;;;;;1.90;95.18;96354.94;4987082;28;20061;-62
2023/03/06 03:19:49;;;;;;;0.30;0.30;;;;;;;1.99;94.28;96348.25;4985487;28;20061;-62
2023/03/06 03:22:16;;;;;;;0.30;0.30;;;;;;;1.91;93.74;96361.97;4986867;28;20050;-62
2023/03/06 03:24:43;;;;;;;0.32;0.32;;;;;;;1.77;94.10;96353.25;4986180;28;20058;-62
2023/03/06 03:27:10;;;;;;;0.30;0.30;;;;;;;1.38;94.70;96291.66;4986870;28;20054;-61
2023/03/06 03:29:36;;;;;;;0.30;0.30;;;;;;;1.66;95.82;96343.84;4986091;28;20057;-60
2023/03/06 03:32:03;;;;;;;0.40;0.40;;;;;;;1.75;95.97;96359.03;4985140;28;20050;-61
2023/03/06 03:34:30;;;;;;;0.30;0.30;;;;;;;1.76;96.10;96355.16;5000810;28;20070;-61
2023/03/06 03:36:57;;;;;;;0.30;0.30;;;;;;;1.84;96.32;96361.69;5001352;28;20125;-61
2023/03/06 03:39:23;;;;;;;0.30;0.30;;;;;;;1.78;95.58;96368.47;4986319;28;20144;-62
2023/03/06 03:41:50;;;;;;;0.30;0.30;;;;;;;1.24;96.21;96288.38;5001842;28;20105;-62
2023/03/06 03:44:17;;;;;;;0.30;0.30;;;;;;;-0.56;95.72;96325.22;4985959;28;20061;-63
2023/03/06 03:46:43;;;;;;;0.38;0.38;;;;;;;1.85;94.24;96374.22;5000985;28;20046;-60
2023/03/06 03:49:10;;;;;;;0.30;0.30;;;;;;;1.78;94.13;96423.06;4985901;28;20061;-61
2023/03/06 03:51:37;;;;;;;0.30;0.30;;;;;;;1.69;94.64;96376.75;4986010;28;20046;-61
2023/03/06 03:54:05;;;;;;;0.30;0.30;;;;;;;1.77;94.29;96383.28;4985746;28;20050;-61
2023/03/06 03:56:32;;;;;;;0.40;0.40;;;;;;;1.64;94.71;96359.75;4986107;28;20058;-61
2023/03/06 03:58:59;;;;;;;0.35;0.35;;;;;;;1.44;95.26;96321.16;5000222;28;20054;-62
2023/03/06 04:01:26;;;;;;;0.30;0.30;;;;;;;1.93;97.27;96384.31;4985811;28;20421;-60
2023/03/06 04:03:53;;;;;;;0.30;0.30;;;;;;;1.53;94.80;96321.13;4985266;28;20129;-60
2023/03/06 04:06:19;;;;;;;0.30;0.30;;;;;;;1.88;93.14;96376.28;4988188;28;20505;-62
2023/03/06 04:08:46;;;;;;;0.30;0.30;;;;;;;1.86;93.30;96375.81;5024468;28;20057;-62
2023/03/06 04:11:13;;;;;;;0.30;0.30;;;;;;;1.83;93.57;96380.03;5025021;28;20103;-62
2023/03/06 04:13:40;;;;;;;0.30;0.30;;;;;;;1.88;94.64;96373.56;5011042;28;20136;-60
2023/03/06 04:16:07;;;;;;;0.30;0.30;;;;;;;1.86;94.58;96386.75;4985854;28;20074;-60
2023/03/06 04:18:33;;;;;;;0.30;0.30;;;;;;;1.92;94.29;96379.94;4985575;28;20061;-61
2023/03/06 04:21:00;;;;;;;0.30;0.30;;;;;;;1.31;92.90;96294.91;4985705;28;20058;-60
2023/03/06 04:23:27;;;;;;;0.30;0.30;;;;;;;1.82;93.41;96391.28;4985376;28;20046;-61
2023/03/06 04:25:54;;;;;;;0.30;0.30;;;;;;;1.50;92.67;96352.59;4985280;28;20555;-61
2023/03/06 04:28:20;;;;;;;0.30;0.30;;;;;;;1.88;92.13;96395.41;4986068;28;20097;-60
2023/03/06 04:30:47;;;;;;;0.30;0.30;;;;;;;1.42;93.08;96323.41;4985293;28;20140;-62
2023/03/06 04:33:13;;;;;;;0.30;0.30;;;;;;;1.84;93.03;96411.66;4985238;28;20054;-62
2023/03/06 04:35:40;;;;;;;0.30;0.30;;;;;;;1.90;92.13;96398.63;4985051;28;20074;-62
2023/03/06 04:38:07;;;;;;;0.30;0.30;;;;;;;1.45;91.94;96377.31;4985171;28;20054;-62
2023/03/06 04:40:35;;;;;;;0.30;0.30;;;;;;;1.47;93.18;96342.31;4984660;28;20082;-62
2023/03/06 04:43:03;;;;;;;0.30;0.30;;;;;;;1.84;92.84;96411.66;4999897;28;20054;-62
2023/03/06 04:45:31;;;;;;;0.30;0.30;;;;;;;1.40;92.39;96344.78;4984629;28;20488;-62
2023/03/06 04:47:58;;;;;;;0.30;0.30;;;;;;;1.73;91.86;96395.97;4985092;28;20058;-62
2023/03/06 04:50:32;;;;;;;0.38;0.38;;;;;;;1.86;91.00;96419.50;4984959;28;20046;-61
2023/03/06 04:53:00;;;;;;;0.40;0.40;;;;;;;1.86;90.70;96435.88;4984821;28;20509;-60
2023/03/06 04:55:27;;;;;;;0.30;0.30;;;;;;;1.67;90.75;96421.84;4999718;28;20120;-61
2023/03/06 04:57:54;;;;;;;0.30;0.30;;;;;;;1.32;91.45;96383.81;5000190;28;20514;-60
2023/03/06 05:00:23;;;;;;;0.30;0.30;;;;;;;1.74;91.14;96422.94;4984398;28;20120;-61
2023/03/06 05:02:50;;;;;;;0.40;0.40;;;;;;;1.78;90.73;96423.06;4999921;28;20085;-61
2023/03/06 05:05:17;;;;;;;0.30;0.30;;;;;;;1.55;91.49;96404.25;4999705;28;20136;-62
2023/03/06 05:07:44;;;;;;;0.30;0.30;;;;;;;1.30;91.11;96366.97;5005537;28;20092;-60
2023/03/06 05:10:14;;;;;;;0.40;0.40;;;;;;;1.69;90.98;96441.44;5023399;28;20095;-62
2023/03/06 05:12:41;;;;;;;0.30;0.30;;;;;;;1.19;92.18;96384.81;5024150;28;20053;-62
2023/03/06 05:15:10;;;;;;;0.30;0.30;;;;;;;1.75;91.50;96451.84;5038734;28;20103;-60
2023/03/06 05:17:37;;;;;;;0.30;0.30;;;;;;;1.80;91.70;96459.03;5023998;28;20053;-60
2023/03/06 05:20:05;;;;;;;0.30;0.30;;;;;;;1.85;92.35;96456.13;4993518;28;20306;-62
2023/03/06 05:22:33;;;;;;;0.32;0.32;;;;;;;1.97;92.67;96464.41;4985064;28;20116;-63
2023/03/06 05:25:00;;;;;;;0.40;0.40;;;;;;;1.53;91.43;96431.06;4984069;28;20058;-60
2023/03/06 05:27:27;;;;;;;0.30;0.30;;;;;;;1.87;91.80;96459.31;4984373;28;20050;-62
2023/03/06 05:29:54;;;;;;;0.30;0.30;;;;;;;1.83;91.60;96463.84;4999557;28;20050;-62
2023/03/06 05:32:21;;;;;;;0.30;0.30;;;;;;;1.78;92.37;96445.72;4984862;28;20532;-62
2023/03/06 05:34:48;;;;;;;0.30;0.30;;;;;;;1.88;92.31;96467.19;4985688;28;20058;-62
2023/03/06 05:37:15;;;;;;;0.30;0.30;;;;;;;2.04;93.08;96467.44;4988951;28;20082;-61
2023/03/06 05:39:41;;;;;;;0.30;0.30;;;;;;;2.01;92.72;96438.06;4988682;28;20050;-62
2023/03/06 05:42:08;;;;;;;0.40;0.40;;;;;;;2.40;92.59;96473.16;4987029;28;20057;-61
2023/03/06 05:44:35;;;;;;;0.30;0.30;;;;;;;2.58;92.33;96485.56;5007078;28;20047;-61
2023/03/06 05:47:02;;;;;;;0.30;0.30;;;;;;;2.75;91.48;96479.97;4988189;28;20120;-62
2023/03/06 05:49:35;;;;;;;0.30;0.30;;;;;;;2.84;89.92;96456.09;4987984;28;20133;-61
2023/03/06 05:52:03;;;;;;;0.40;0.40;;;;;;;3.08;88.81;96487.06;5005439;28;20073;-61
2023/03/06 05:54:31;;;;;;;0.35;0.35;;;;;;;2.69;87.20;96410.22;5007392;28;20133;-62
2023/03/06 05:56:58;;;;;;;0.40;0.40;;;;;;;3.16;85.92;96490.88;5007466;28;20119;-61
2023/03/06 05:59:27;;;;;;;0.40;0.40;;;;;;;3.29;84.52;96495.25;5006149;28;20577;-60
2023/03/06 06:01:54;;;;;;;0.30;0.30;;;;;;;2.93;83.90;96443.13;5007392;28;20143;-61
2023/03/06 06:04:23;;;;;;;0.40;0.40;;;;;;;3.47;83.72;96506.81;5007480;28;20060;-62
2023/03/06 06:06:52;;;;;;;0.40;0.40;;;;;;;3.24;83.80;96442.66;5007710;28;20108;-61
2023/03/06 06:09:21;;;;;;;0.40;0.40;;;;;;;3.77;83.89;96500.03;5025569;28;20045;-62
2023/03/06 06:12:01;;;;;;;0.40;0.40;;;;;;;3.98;83.08;96501.53;5027291;28;20045;-64
2023/03/06 06:14:28;;;;;;;0.40;0.40;;;;;;;3.46;81.60;96385.59;5027482;28;20061;-62
2023/03/06 06:16:55;;;;;;;0.40;0.40;;;;;;;3.91;81.14;96446.53;5026986;28;20089;-63
2023/03/06 06:19:22;;;;;;;0.40;0.40;;;;;;;4.35;80.19;96500.41;5027362;28;20081;-60
2023/03/06 06:21:51;;;;;;;0.40;0.40;;;;;;;3.42;80.10;96346.34;5026799;28;20050;-60
2023/03/06 06:24:20;;;;;;;0.47;0.47;;;;;;;4.83;79.24;96520.69;5025297;28;20500;-62
2023/03/06 06:26:52;;;;;;;0.47;0.47;;;;;;;4.89;78.81;96522.03;5026687;28;20107;-61
2023/03/06 06:29:20;;;;;;;0.40;0.40;;;;;;;4.98;78.30;96522.75;5027022;28;20061;-61
2023/03/06 06:31:47;;;;;;;0.40;0.40;;;;;;;5.18;78.94;96527.25;5026866;28;20045;-63
2023/03/06 06:34:14;;;;;;;0.43;0.43;;;;;;;5.37;77.47;96521.91;5041720;28;20123;-62
2023/03/06 06:36:40;;;;;;;0.40;0.40;;;;;;;5.35;76.14;96518.72;5026799;28;20068;-61
2023/03/06 06:39:08;;;;;;;0.50;0.50;;;;;;;5.39;76.68;96522.38;5025277;28;20304;-63
2023/03/06 06:41:35;;;;;;;0.50;0.50;;;;;;;5.67;76.33;96512.97;5013261;28;20056;-63
2023/03/06 06:44:21;;;;;;;0.50;0.50;;;;;;;5.87;75.49;96527.63;5005429;28;20058;-63
2023/03/06 06:46:49;;;;;;;0.50;0.50;;;;;;;6.07;73.85;96518.34;5019570;28;20057;-59
2023/03/06 06:49:36;;;;;;;0.50;0.50;;;;;;;5.90;72.81;96510.44;5006499;28;20704;-60
2023/03/06 06:52:04;;;;;;;0.50;0.50;;;;;;;6.21;72.58;96532.47;5003538;28;20054;-62
2023/03/06 06:54:32;;;;;;;0.50;0.50;;;;;;;6.46;71.14;96539.38;4989290;28;20103;-58
2023/03/06 06:56:59;;;;;;;0.50;0.50;;;;;;;6.53;68.88;96549.75;5005642;28;20058;-59
2023/03/06 06:59:25;;;;;;;0.60;0.60;;;;;;;6.69;69.01;96543.06;5005428;28;20046;-60
2023/03/06 07:01:52;;;;;;;0.60;0.60;;;;;;;6.66;67.78;96527.28;5009073;28;20054;-60
2023/03/06 07:04:19;;;;;;;0.60;0.60;;;;;;;6.69;66.73;96545.81;5003589;28;20519;-61
2023/03/06 07:06:46;;;;;;;0.50;0.50;;;;;;;5.98;66.48;96407.78;5008206;28;20574;-64
2023/03/06 07:09:13;;;;;;;0.50;0.50;;;;;;;6.36;66.93;96489.59;5018810;28;20056;-64
2023/03/06 07:11:40;;;;;;;0.60;0.60;;;;;;;6.35;67.29;96466.00;5009695;28;20064;-67
2023/03/06 07:14:07;;;;;;;0.65;0.65;;;;;;;5.88;66.99;96409.09;5004964;28;20559;-60
2023/03/06 07:16:33;;;;;;;0.60;0.60;;;;;;;7.02;67.72;96546.19;5004382;28;20492;-60
2023/03/06 07:19:00;;;;;;;0.55;0.55;;;;;;;6.71;67.63;96496.72;5021187;28;20464;-61
2023/03/06 07:21:27;;;;;;;0.50;0.50;;;;;;;6.69;67.95;96554.06;5015576;28;20508;-60
2023/03/06 07:23:56;;;;;;;0.60;0.60;;;;;;;5.30;71.02;96411.88;5005558;28;20069;-62
2023/03/06 07:26:26;;;;;;;0.60;0.60;;;;;;;6.79;71.13;96548.03;5019467;28;20136;-61
2023/03/06 07:28:53;;;;;;;0.50;0.50;;;;;;;5.93;70.84;96410.78;5005669;28;20045;-62
2023/03/06 07:31:23;;;;;;;0.60;0.60;;;;;;;6.97;69.10;96549.22;5019057;28;20089;-64
2023/03/06 07:33:51;;;;;;;0.50;0.50;;;;;;;6.85;69.63;96546.59;5004806;28;20371;-58
2023/03/06 07:36:19;;;;;;;0.50;0.50;;;;;;;6.50;67.67;96570.50;5006934;28;20127;-62
2023/03/06 07:38:46;;;;;;;0.60;0.60;;;;;;;6.71;67.35;96496.72;5004572;28;20053;-63
2023/03/06 07:41:15;;;;;;;0.60;0.60;;;;;;;7.33;66.99;96546.09;5005293;28;20089;-59
2023/03/06 07:43:43;;;;;;;0.60;0.60;;;;;;;7.30;66.40;96535.00;5005126;28;20081;-62
2023/03/06 07:46:11;;;;;;;0.60;0.60;;;;;;;7.37;67.49;96552.47;5020095;28;20444;-61
2023/03/06 07:48:38;;;;;;;0.60;0.60;;;;;;;7.35;66.11;96480.41;5018983;28;20073;-60
2023/03/06 07:51:11;;;;;;;0.60;0.60;;;;;;;7.79;62.68;96516.72;5021961;28;20053;-61
2023/03/06 07:53:38;;;;;;;0.70;0.70;;;;;;;8.05;61.83;96502.19;5005285;28;20480;-61
2023/03/06 07:56:07;;;;;;;0.70;0.70;;;;;;;7.92;58.88;96470.47;4991280;28;20104;-60
2023/03/06 07:58:36;;;;;;;0.70;0.70;;;;;;;8.37;58.15;96517.38;5019988;28;20069;-68
2023/03/06 08:01:04;;;;;;;0.70;0.70;;;;;;;7.87;59.16;96554.28;5004734;28;20069;-63
2023/03/06 08:03:32;;;;;;;0.70;0.70;;;;;;;8.50;57.63;96552.72;5004681;28;20058;-62
2023/03/06 08:06:08;;;;;;;0.70;0.70;;;;;;;8.87;57.27;96552.91;5023241;28;20088;-62
2023/03/06 08:08:38;;;;;;;0.80;0.80;;;;;;;9.08;53.67;96559.56;5007342;28;20339;-66
2023/03/06 08:11:05;;;;;;;0.70;0.70;;;;;;;8.83;54.06;96485.78;5005121;28;20051;-64
2023/03/06 08:13:33;;;;;;;0.70;0.70;;;;;;;9.52;52.39;96561.72;5004533;28;20141;-61
2023/03/06 08:16:00;;;;;;;0.80;0.80;;;;;;;9.46;52.26;96552.16;5004771;28;20038;-64
2023/03/06 08:18:27;;;;;;;0.80;0.80;;;;;;;9.21;52.78;96524.22;5003890;28;20046;-61
2023/03/06 08:21:05;;;;;;;0.70;0.70;;;;;;;9.72;51.65;96558.44;5003750;28;20135;-68
2023/03/06 08:23:33;;;;;;;0.70;0.70;;;;;;;9.95;48.16;96553.59;5003031;28;20053;-63
2023/03/06 08:26:04;;;;;;;0.80;0.80;;;;;;;9.76;47.98;96528.88;5003337;28;20054;-65
2023/03/06 08:28:31;;;;;;;0.80;0.80;;;;;;;10.15;48.07;96568.84;5001979;28;20140;-63
2023/03/06 08:31:05;;;;;;;0.80;0.80;;;;;;;10.20;46.60;96637.72;5019482;28;20081;-65
2023/03/06 08:33:32;;;;;;;0.80;0.80;;;;;;;10.14;46.91;96511.94;5005582;28;20595;-60
2023/03/06 08:35:59;;;;;;;0.80;0.80;;;;;;;9.34;46.93;96403.97;5004405;28;20080;-66
2023/03/06 08:38:28;;;;;;;0.80;0.80;;;;;;;10.39;47.01;96564.75;5005202;28;20053;-57
2023/03/06 08:40:55;;;;;;;0.90;0.90;;;;;;;10.40;46.31;96520.06;5003814;28;20152;-62
2023/03/06 08:43:22;;;;;;;0.80;0.80;;;;;;;10.64;47.57;96540.84;5003093;28;20046;-58
2023/03/06 08:45:56;;;;;;;0.80;0.80;;;;;;;11.03;46.58;96568.88;4999324;28;20571;-62
2023/03/06 08:48:24;;;;;;;0.90;0.90;;;;;;;10.70;46.58;96501.34;5000691;28;20457;-61
2023/03/06 08:50:51;;;;;;;0.80;0.80;;;;;;;10.97;46.68;96554.56;5008484;28;20133;-57
2023/03/06 08:53:18;;;;;;;0.80;0.80;;;;;;;10.86;46.76;96553.69;5004092;28;20081;-63
2023/03/06 08:55:45;;;;;;;0.90;0.90;;;;;;;10.49;45.83;96517.81;5013888;28;20058;-64
2023/03/06 08:58:12;;;;;;;0.82;0.82;;;;;;;9.95;46.35;96509.31;5003518;28;20513;-64
2023/03/06 09:00:39;;;;;;;0.88;0.88;;;;;;;10.34;46.42;96465.44;5003419;28;20081;-65
2023/03/06 09:03:05;;;;;;;0.90;0.90;;;;;;;10.97;46.36;96542.72;5002773;28;20057;-60
2023/03/06 09:05:32;;;;;;;0.80;0.80;;;;;;;11.32;45.95;96551.25;5003141;28;20776;-65
2023/03/06 09:07:59;;;;;;;0.90;0.90;;;;;;;10.85;46.39;96446.03;5017571;28;20164;-65
2023/03/06 09:10:26;;;;;;;0.90;0.90;;;;;;;11.48;45.73;96541.44;5001911;28;20136;-60
2023/03/06 09:12:53;;;;;;;0.88;0.88;;;;;;;10.57;45.59;96414.19;5002706;28;20695;-66
2023/03/06 09:15:22;;;;;;;0.95;0.95;;;;;;;10.67;45.18;96491.03;5006116;28;20543;-58
2023/03/06 09:17:49;;;;;;;0.80;0.80;;;;;;;11.36;45.44;96532.66;5004494;28;20643;-60
2023/03/06 09:20:16;;;;;;;0.82;0.82;;;;;;;10.79;46.60;96442.84;5004296;28;20050;-60
2023/03/06 09:22:44;;;;;;;0.85;0.85;;;;;;;11.57;45.63;96528.00;5003303;28;20057;-59
2023/03/06 09:25:20;;;;;;;0.90;0.90;;;;;;;11.57;45.89;96485.63;5017980;28;20567;-60
2023/03/06 09:27:48;;;;;;;0.90;0.90;;;;;;;12.12;45.44;96514.78;5002264;28;20136;-59
2023/03/06 09:30:30;;;;;;;0.90;0.90;;;;;;;12.05;44.90;96514.75;5004148;28;20144;-59
2023/03/06 09:32:57;;;;;;;0.95;0.95;;;;;;;11.21;44.26;96489.38;5018452;28;20072;-64
2023/03/06 09:35:23;;;;;;;0.88;0.88;;;;;;;10.55;46.46;96516.25;5003442;28;20128;-64
2023/03/06 09:37:50;;;;;;;0.90;0.90;;;;;;;9.31;46.37;96202.19;5003526;28;20054;-65
2023/03/06 09:40:45;;;;;;;0.90;0.90;;;;;;;11.81;46.91;96519.03;5008203;28;20074;-63
2023/03/06 09:43:22;;;;;;;0.95;0.95;;;;;;;11.75;45.01;96517.03;5021923;28;20045;-63
2023/03/06 09:45:49;;;;;;;0.80;0.80;;;;;;;11.42;46.36;96522.78;5023073;28;20096;-59
2023/03/06 09:48:18;;;;;;;0.90;0.90;;;;;;;11.86;46.11;96517.84;5023056;28;20050;-63
2023/03/06 09:50:53;;;;;;;1.00;1.00;;;;;;;12.04;45.02;96513.94;5023286;28;20045;-59
2023/03/06 09:53:43;;;;;;;1.00;1.00;;;;;;;12.07;44.11;96523.47;5022959;28;20411;-59
2023/03/06 09:56:22;;;;;;;0.93;0.93;;;;;;;12.18;44.72;96522.34;5022990;28;20419;-62
2023/03/06 09:58:54;;;;;;;0.90;0.90;;;;;;;12.34;44.85;96494.19;5022925;28;20243;-59
2023/03/06 10:01:35;;;;;;;0.95;0.95;;;;;;;11.83;44.79;96368.81;5023261;28;20061;-63
2023/03/06 10:04:31;;;;;;;1.15;1.15;;;;;;;13.23;44.44;96507.66;5023061;28;20092;-58
2023/03/06 10:07:03;;;;;;;1.13;1.13;;;;;;;12.87;43.64;96444.94;5023568;28;20049;-59
2023/03/06 10:09:41;;;;;;;1.00;1.00;;;;;;;13.17;43.75;96509.28;5017293;28;20512;-58
2023/03/06 10:12:39;;;;;;;1.17;1.17;;;;;;;13.16;42.96;96507.69;5009738;28;20786;-58
2023/03/06 10:15:22;;;;;;;1.10;1.10;;;;;;;11.61;44.04;96408.75;5021112;28;20069;-64
2023/03/06 10:17:49;;;;;;;1.00;1.00;;;;;;;12.34;43.34;96515.59;5023104;28;20077;-61
2023/03/06 10:20:17;;;;;;;0.93;0.93;;;;;;;12.77;42.49;96506.88;5022716;28;20081;-64
2023/03/06 10:22:53;;;;;;;1.02;1.02;;;;;;;12.90;41.48;96496.19;5025216;28;20103;-66
2023/03/06 10:25:36;;;;;;;0.90;0.90;;;;;;;12.25;43.52;96496.53;5024518;28;20057;-66
2023/03/06 10:28:16;;;;;;;1.10;1.10;;;;;;;12.54;42.12;96420.38;5024801;28;20126;-60
2023/03/06 10:30:51;;;;;;;1.10;1.10;;;;;;;7.69;42.61;95666.50;5026242;28;20107;-59
2023/03/06 10:33:36;;;;;;;1.13;1.13;;;;;;;13.67;42.46;96466.19;5024638;28;20054;-63
2023/03/06 10:36:03;;;;;;;1.17;1.17;;;;;;;13.76;42.10;96440.72;5026523;28;20053;-59
2023/03/06 10:38:30;;;;;;;1.20;1.20;;;;;;;14.09;41.57;96458.81;5025798;28;20054;-63
2023/03/06 10:41:17;;;;;;;1.20;1.20;;;;;;;14.23;40.31;96461.50;5025209;28;20068;-60
2023/03/06 10:44:04;;;;;;;1.10;1.10;;;;;;;14.30;40.80;96419.72;4995181;28;20415;-63
2023/03/06 10:46:30;;;;;;;1.15;1.15;;;;;;;14.58;38.83;96455.72;4989334;28;20054;-60
2023/03/06 10:49:23;;;;;;;1.17;1.17;;;;;;;14.74;39.78;96455.97;5026254;28;20057;-64
2023/03/06 10:52:04;;;;;;;1.33;1.33;;;;;;;15.06;40.40;96439.75;5017392;28;20057;-65
2023/03/06 10:54:34;;;;;;;1.30;1.30;;;;;;;15.05;38.30;96427.00;5024096;28;20060;-60
2023/03/06 10:57:24;;;;;;;1.23;1.23;;;;;;;15.23;39.20;96447.13;5025755;28;20050;-65
2023/03/06 10:59:57;;;;;;;1.42;1.42;;;;;;;15.19;39.60;96415.69;5026007;28;20054;-63
2023/03/06 11:02:31;;;;;;;1.33;1.33;;;;;;;15.32;38.96;96430.69;5018617;28;20056;-64
2023/03/06 11:05:00;;;;;;;1.50;1.50;;;;;;;14.86;39.31;96329.97;5024070;28;20295;-59
2023/03/06 11:07:32;;;;;;;1.40;1.40;;;;;;;14.46;36.86;96294.59;5024183;28;20056;-59
2023/03/06 11:10:03;;;;;;;1.30;1.30;;;;;;;15.32;36.99;96425.09;5016271;28;20112;-65
2023/03/06 11:12:37;;;;;;;1.40;1.40;;;;;;;15.09;38.13;96406.22;5003799;28;20061;-60
2023/03/06 11:15:13;;;;;;;1.30;1.30;;;;;;;14.68;39.14;96413.03;5005572;28;20073;-60
2023/03/06 11:17:57;;;;;;;1.30;1.30;;;;;;;14.48;39.07;96404.44;5016378;28;20065;-64
2023/03/06 11:20:44;;;;;;;1.30;1.30;;;;;;;14.45;40.50;96405.25;5025227;28;20057;-66
2023/03/06 11:23:39;;;;;;;1.20;1.20;;;;;;;14.70;39.92;96405.06;5025450;28;20053;-65
2023/03/06 11:26:14;;;;;;;1.38;1.38;;;;;;;14.64;39.57;96401.09;5025173;28;20129;-60
2023/03/06 11:29:08;;;;;;;1.30;1.30;;;;;;;14.43;39.74;96401.31;5025032;28;20520;-65
2023/03/06 11:31:40;;;;;;;1.25;1.25;;;;;;;14.41;39.68;96392.56;5008980;28;20053;-60
2023/03/06 11:34:10;;;;;;;1.13;1.13;;;;;;;14.33;39.09;96391.03;5024697;28;20136;-64
2023/03/06 11:37:09;;;;;;;1.17;1.17;;;;;;;14.36;40.70;96384.63;5024950;28;20115;-59
2023/03/06 11:39:35;;;;;;;1.20;1.20;;;;;;;14.54;39.28;96379.72;5024116;28;20049;-66
2023/03/06 11:42:22;;;;;;;1.17;1.17;;;;;;;14.44;39.60;96386.16;5023898;28;20480;-64
2023/03/06 11:45:21;;;;;;;1.13;1.13;;;;;;;14.41;39.59;96371.06;5019101;28;20237;-61
2023/03/06 11:48:00;;;;;;;1.23;1.23;;;;;;;14.43;39.18;96381.81;5002303;28;20146;-61
2023/03/06 11:50:37;;;;;;;1.20;1.20;;;;;;;14.39;39.75;96370.69;5005947;28;20136;-66